sensor_id;sensor_type;location;lat;lon;timestamp;P1;durP1;ratioP1;P2;durP2;ratioP2
15958;SDS011;8078;47.822;9.402;2022-10-16T00:00:36;2.05;;;1.80;;
15958;SDS011;8078;47.822;9.402;2022-10-16T00:03:03;4.85;;;2.10;;
15958;SDS011;8078;47.822;9.402;2022-10-16T00:05:29;3.40;;;1.70;;
15958;SDS011;8078;47.822;9.402;2022-10-16T00:07:55;3.45;;;1.70;;
15958;SDS011;8078;47.822;9.402;2022-10-16T00:10:21;3.55;;;1.63;;
15958;SDS011;8078;47.822;9.402;2022-10-16T00:12:46;2.65;;;1.40;;
15958;SDS011;8078;47.822;9.402;2022-10-16T00:15:12;1.55;;;1.42;;
15958;SDS011;8078;47.822;9.402;2022-10-16T00:17:38;2.13;;;1.40;;
15958;SDS011;8078;47.822;9.402;2022-10-16T00:20:03;4.20;;;1.67;;
15958;SDS011;8078;47.822;9.402;2022-10-16T00:22:29;1.90;;;1.27;;
15958;SDS011;8078;47.822;9.402;2022-10-16T00:24:55;1.30;;;1.20;;
15958;SDS011;8078;47.822;9.402;2022-10-16T00:27:21;5.65;;;1.42;;
15958;SDS011;8078;47.822;9.402;2022-10-16T00:29:49;4.40;;;1.30;;
15958;SDS011;8078;47.822;9.402;2022-10-16T00:32:16;4.97;;;1.30;;
15958;SDS011;8078;47.822;9.402;2022-10-16T00:34:42;2.10;;;1.10;;
15958;SDS011;8078;47.822;9.402;2022-10-16T00:37:08;1.27;;;1.02;;
15958;SDS011;8078;47.822;9.402;2022-10-16T00:39:34;1.77;;;1.10;;
15958;SDS011;8078;47.822;9.402;2022-10-16T00:41:59;1.15;;;1.05;;
15958;SDS011;8078;47.822;9.402;2022-10-16T00:50:18;4.30;;;1.35;;
15958;SDS011;8078;47.822;9.402;2022-10-16T00:53:02;1.23;;;1.00;;
15958;SDS011;8078;47.822;9.402;2022-10-16T00:55:28;1.95;;;1.45;;
15958;SDS011;8078;47.822;9.402;2022-10-16T00:57:55;3.55;;;2.13;;
15958;SDS011;8078;47.822;9.402;2022-10-16T01:00:23;2.55;;;2.10;;
15958;SDS011;8078;47.822;9.402;2022-10-16T01:02:57;4.05;;;2.58;;
15958;SDS011;8078;47.822;9.402;2022-10-16T01:05:27;2.35;;;1.63;;
15958;SDS011;8078;47.822;9.402;2022-10-16T01:08:04;4.03;;;1.30;;
15958;SDS011;8078;47.822;9.402;2022-10-16T01:13:20;2.38;;;1.05;;
15958;SDS011;8078;47.822;9.402;2022-10-16T01:15:59;1.80;;;1.20;;
15958;SDS011;8078;47.822;9.402;2022-10-16T01:18:37;1.73;;;1.35;;
15958;SDS011;8078;47.822;9.402;2022-10-16T01:21:09;3.45;;;1.20;;
15958;SDS011;8078;47.822;9.402;2022-10-16T01:23:49;1.10;;;1.00;;
15958;SDS011;8078;47.822;9.402;2022-10-16T01:31:44;1.50;;;1.10;;
15958;SDS011;8078;47.822;9.402;2022-10-16T01:34:16;3.75;;;1.13;;
15958;SDS011;8078;47.822;9.402;2022-10-16T01:36:47;1.95;;;1.13;;
15958;SDS011;8078;47.822;9.402;2022-10-16T01:39:21;1.60;;;1.10;;
15958;SDS011;8078;47.822;9.402;2022-10-16T01:42:04;1.60;;;1.50;;
15958;SDS011;8078;47.822;9.402;2022-10-16T01:44:42;1.40;;;1.27;;
15958;SDS011;8078;47.822;9.402;2022-10-16T01:47:10;4.65;;;1.30;;
15958;SDS011;8078;47.822;9.402;2022-10-16T01:49:38;2.25;;;1.30;;
15958;SDS011;8078;47.822;9.402;2022-10-16T01:52:06;3.17;;;1.20;;
15958;SDS011;8078;47.822;9.402;2022-10-16T01:54:36;3.65;;;1.33;;
15958;SDS011;8078;47.822;9.402;2022-10-16T01:57:05;1.85;;;1.40;;
15958;SDS011;8078;47.822;9.402;2022-10-16T01:59:32;1.67;;;1.10;;
15958;SDS011;8078;47.822;9.402;2022-10-16T02:02:04;1.52;;;1.42;;
15958;SDS011;8078;47.822;9.402;2022-10-16T02:04:33;1.63;;;1.17;;
15958;SDS011;8078;47.822;9.402;2022-10-16T02:07:02;4.72;;;1.60;;
15958;SDS011;8078;47.822;9.402;2022-10-16T02:09:29;4.80;;;1.55;;
15958;SDS011;8078;47.822;9.402;2022-10-16T02:11:58;2.35;;;1.20;;
15958;SDS011;8078;47.822;9.402;2022-10-16T02:14:27;2.70;;;1.20;;
15958;SDS011;8078;47.822;9.402;2022-10-16T02:16:54;3.03;;;1.27;;
15958;SDS011;8078;47.822;9.402;2022-10-16T02:19:20;1.52;;;1.13;;
15958;SDS011;8078;47.822;9.402;2022-10-16T02:21:48;2.78;;;1.15;;
15958;SDS011;8078;47.822;9.402;2022-10-16T02:24:28;1.52;;;1.27;;
15958;SDS011;8078;47.822;9.402;2022-10-16T02:29:35;2.42;;;1.33;;
15958;SDS011;8078;47.822;9.402;2022-10-16T02:32:06;1.00;;;1.00;;
15958;SDS011;8078;47.822;9.402;2022-10-16T02:34:33;2.20;;;1.00;;
15958;SDS011;8078;47.822;9.402;2022-10-16T02:37:00;1.17;;;1.08;;
15958;SDS011;8078;47.822;9.402;2022-10-16T02:39:29;1.10;;;1.00;;
15958;SDS011;8078;47.822;9.402;2022-10-16T02:41:55;1.27;;;0.90;;
15958;SDS011;8078;47.822;9.402;2022-10-16T02:44:21;1.25;;;0.90;;
15958;SDS011;8078;47.822;9.402;2022-10-16T02:46:46;1.00;;;1.00;;
15958;SDS011;8078;47.822;9.402;2022-10-16T02:49:12;1.63;;;1.00;;
15958;SDS011;8078;47.822;9.402;2022-10-16T02:51:37;3.63;;;1.23;;
15958;SDS011;8078;47.822;9.402;2022-10-16T02:54:03;1.42;;;1.00;;
15958;SDS011;8078;47.822;9.402;2022-10-16T02:56:29;4.00;;;1.00;;
15958;SDS011;8078;47.822;9.402;2022-10-16T02:58:55;1.77;;;1.00;;
15958;SDS011;8078;47.822;9.402;2022-10-16T03:01:21;1.10;;;1.00;;
15958;SDS011;8078;47.822;9.402;2022-10-16T03:03:47;1.58;;;0.90;;
15958;SDS011;8078;47.822;9.402;2022-10-16T03:06:13;3.88;;;1.10;;
15958;SDS011;8078;47.822;9.402;2022-10-16T03:08:38;1.15;;;1.05;;
15958;SDS011;8078;47.822;9.402;2022-10-16T03:11:04;0.98;;;0.90;;
15958;SDS011;8078;47.822;9.402;2022-10-16T03:13:30;3.72;;;1.08;;
15958;SDS011;8078;47.822;9.402;2022-10-16T03:15:55;2.22;;;1.00;;
15958;SDS011;8078;47.822;9.402;2022-10-16T03:18:21;6.28;;;1.40;;
15958;SDS011;8078;47.822;9.402;2022-10-16T03:20:47;2.55;;;1.00;;
15958;SDS011;8078;47.822;9.402;2022-10-16T03:23:12;1.73;;;1.00;;
15958;SDS011;8078;47.822;9.402;2022-10-16T03:25:38;1.50;;;1.08;;
15958;SDS011;8078;47.822;9.402;2022-10-16T03:28:03;3.42;;;1.27;;
15958;SDS011;8078;47.822;9.402;2022-10-16T03:30:29;1.40;;;1.13;;
15958;SDS011;8078;47.822;9.402;2022-10-16T03:32:54;1.13;;;1.02;;
15958;SDS011;8078;47.822;9.402;2022-10-16T03:35:21;1.17;;;1.00;;
15958;SDS011;8078;47.822;9.402;2022-10-16T03:37:47;3.03;;;0.93;;
15958;SDS011;8078;47.822;9.402;2022-10-16T03:40:13;2.70;;;1.00;;
15958;SDS011;8078;47.822;9.402;2022-10-16T03:42:38;1.08;;;0.98;;
15958;SDS011;8078;47.822;9.402;2022-10-16T03:45:04;1.50;;;0.70;;
15958;SDS011;8078;47.822;9.402;2022-10-16T03:47:30;1.17;;;1.00;;
15958;SDS011;8078;47.822;9.402;2022-10-16T03:49:58;4.25;;;0.90;;
15958;SDS011;8078;47.822;9.402;2022-10-16T03:52:24;1.92;;;1.27;;
15958;SDS011;8078;47.822;9.402;2022-10-16T03:54:50;2.42;;;1.05;;
15958;SDS011;8078;47.822;9.402;2022-10-16T03:57:16;1.30;;;1.20;;
15958;SDS011;8078;47.822;9.402;2022-10-16T03:59:41;0.75;;;0.75;;
15958;SDS011;8078;47.822;9.402;2022-10-16T04:02:07;2.28;;;0.85;;
15958;SDS011;8078;47.822;9.402;2022-10-16T04:04:33;2.97;;;0.90;;
15958;SDS011;8078;47.822;9.402;2022-10-16T04:06:59;2.92;;;0.80;;
15958;SDS011;8078;47.822;9.402;2022-10-16T04:09:24;1.00;;;0.90;;
15958;SDS011;8078;47.822;9.402;2022-10-16T04:11:50;1.20;;;1.10;;
15958;SDS011;8078;47.822;9.402;2022-10-16T04:14:16;1.25;;;0.80;;
15958;SDS011;8078;47.822;9.402;2022-10-16T04:16:41;1.10;;;1.00;;
15958;SDS011;8078;47.822;9.402;2022-10-16T04:19:07;1.05;;;0.95;;
15958;SDS011;8078;47.822;9.402;2022-10-16T04:21:33;1.10;;;1.00;;
15958;SDS011;8078;47.822;9.402;2022-10-16T04:23:59;2.20;;;1.23;;
15958;SDS011;8078;47.822;9.402;2022-10-16T04:26:24;1.08;;;1.00;;
15958;SDS011;8078;47.822;9.402;2022-10-16T04:28:50;3.15;;;1.10;;
15958;SDS011;8078;47.822;9.402;2022-10-16T04:31:15;1.95;;;1.27;;
15958;SDS011;8078;47.822;9.402;2022-10-16T04:33:44;3.08;;;1.10;;
15958;SDS011;8078;47.822;9.402;2022-10-16T04:36:09;1.10;;;1.00;;
15958;SDS011;8078;47.822;9.402;2022-10-16T04:38:35;2.80;;;1.45;;
15958;SDS011;8078;47.822;9.402;2022-10-16T04:41:02;2.10;;;1.00;;
15958;SDS011;8078;47.822;9.402;2022-10-16T04:43:28;4.68;;;1.23;;
15958;SDS011;8078;47.822;9.402;2022-10-16T04:45:54;1.40;;;1.10;;
15958;SDS011;8078;47.822;9.402;2022-10-16T04:48:21;2.08;;;1.20;;
15958;SDS011;8078;47.822;9.402;2022-10-16T04:50:47;2.15;;;1.10;;
15958;SDS011;8078;47.822;9.402;2022-10-16T04:53:12;1.85;;;1.33;;
15958;SDS011;8078;47.822;9.402;2022-10-16T04:55:38;2.33;;;1.23;;
15958;SDS011;8078;47.822;9.402;2022-10-16T04:58:06;2.15;;;1.10;;
15958;SDS011;8078;47.822;9.402;2022-10-16T05:00:32;1.38;;;1.20;;
15958;SDS011;8078;47.822;9.402;2022-10-16T05:02:57;3.33;;;1.10;;
15958;SDS011;8078;47.822;9.402;2022-10-16T05:05:24;1.30;;;1.00;;
15958;SDS011;8078;47.822;9.402;2022-10-16T05:07:50;2.03;;;1.10;;
15958;SDS011;8078;47.822;9.402;2022-10-16T05:10:16;1.55;;;1.10;;
15958;SDS011;8078;47.822;9.402;2022-10-16T05:12:42;6.55;;;1.20;;
15958;SDS011;8078;47.822;9.402;2022-10-16T05:15:07;4.80;;;1.20;;
15958;SDS011;8078;47.822;9.402;2022-10-16T05:17:33;1.73;;;1.05;;
15958;SDS011;8078;47.822;9.402;2022-10-16T05:19:59;2.45;;;1.10;;
15958;SDS011;8078;47.822;9.402;2022-10-16T05:22:24;1.10;;;1.00;;
15958;SDS011;8078;47.822;9.402;2022-10-16T05:24:50;1.17;;;0.95;;
15958;SDS011;8078;47.822;9.402;2022-10-16T05:27:16;1.25;;;1.10;;
15958;SDS011;8078;47.822;9.402;2022-10-16T05:29:47;2.58;;;1.02;;
15958;SDS011;8078;47.822;9.402;2022-10-16T05:32:13;3.15;;;1.85;;
15958;SDS011;8078;47.822;9.402;2022-10-16T05:34:40;2.65;;;1.10;;
15958;SDS011;8078;47.822;9.402;2022-10-16T05:37:06;2.13;;;1.00;;
15958;SDS011;8078;47.822;9.402;2022-10-16T05:39:31;2.83;;;1.00;;
15958;SDS011;8078;47.822;9.402;2022-10-16T05:41:57;3.45;;;1.10;;
15958;SDS011;8078;47.822;9.402;2022-10-16T05:44:22;3.95;;;1.10;;
15958;SDS011;8078;47.822;9.402;2022-10-16T05:46:48;1.20;;;1.10;;
15958;SDS011;8078;47.822;9.402;2022-10-16T05:49:14;2.00;;;1.13;;
15958;SDS011;8078;47.822;9.402;2022-10-16T05:51:39;6.50;;;1.20;;
15958;SDS011;8078;47.822;9.402;2022-10-16T05:54:06;2.30;;;1.40;;
15958;SDS011;8078;47.822;9.402;2022-10-16T05:56:31;1.50;;;1.30;;
15958;SDS011;8078;47.822;9.402;2022-10-16T05:58:57;3.65;;;1.27;;
15958;SDS011;8078;47.822;9.402;2022-10-16T06:01:22;1.25;;;1.15;;
15958;SDS011;8078;47.822;9.402;2022-10-16T06:03:49;1.77;;;1.20;;
15958;SDS011;8078;47.822;9.402;2022-10-16T06:06:17;2.95;;;1.35;;
15958;SDS011;8078;47.822;9.402;2022-10-16T06:08:45;2.30;;;1.50;;
15958;SDS011;8078;47.822;9.402;2022-10-16T06:11:16;3.03;;;1.42;;
15958;SDS011;8078;47.822;9.402;2022-10-16T06:13:43;1.65;;;1.48;;
15958;SDS011;8078;47.822;9.402;2022-10-16T06:16:11;1.60;;;1.48;;
15958;SDS011;8078;47.822;9.402;2022-10-16T06:18:38;1.33;;;1.23;;
15958;SDS011;8078;47.822;9.402;2022-10-16T06:21:11;1.38;;;1.27;;
15958;SDS011;8078;47.822;9.402;2022-10-16T06:23:42;1.83;;;1.40;;
15958;SDS011;8078;47.822;9.402;2022-10-16T06:26:11;3.65;;;1.20;;
15958;SDS011;8078;47.822;9.402;2022-10-16T06:28:38;3.22;;;1.35;;
15958;SDS011;8078;47.822;9.402;2022-10-16T06:31:04;2.70;;;1.45;;
15958;SDS011;8078;47.822;9.402;2022-10-16T06:33:31;1.35;;;1.00;;
15958;SDS011;8078;47.822;9.402;2022-10-16T06:36:08;1.63;;;1.35;;
15958;SDS011;8078;47.822;9.402;2022-10-16T06:38:35;3.90;;;1.15;;
15958;SDS011;8078;47.822;9.402;2022-10-16T06:41:01;1.48;;;1.13;;
15958;SDS011;8078;47.822;9.402;2022-10-16T06:43:30;4.65;;;1.00;;
15958;SDS011;8078;47.822;9.402;2022-10-16T06:45:57;1.20;;;1.10;;
15958;SDS011;8078;47.822;9.402;2022-10-16T06:48:25;2.17;;;1.00;;
15958;SDS011;8078;47.822;9.402;2022-10-16T06:51:01;1.20;;;1.10;;
15958;SDS011;8078;47.822;9.402;2022-10-16T06:53:32;1.88;;;0.90;;
15958;SDS011;8078;47.822;9.402;2022-10-16T06:56:06;1.65;;;1.00;;
15958;SDS011;8078;47.822;9.402;2022-10-16T06:58:36;1.02;;;0.95;;
15958;SDS011;8078;47.822;9.402;2022-10-16T07:01:03;0.73;;;0.73;;
15958;SDS011;8078;47.822;9.402;2022-10-16T07:03:29;2.83;;;1.02;;
15958;SDS011;8078;47.822;9.402;2022-10-16T07:05:55;1.05;;;1.05;;
15958;SDS011;8078;47.822;9.402;2022-10-16T07:08:21;1.83;;;1.13;;
15958;SDS011;8078;47.822;9.402;2022-10-16T07:10:47;2.22;;;1.00;;
15958;SDS011;8078;47.822;9.402;2022-10-16T07:13:12;1.35;;;0.95;;
15958;SDS011;8078;47.822;9.402;2022-10-16T07:15:39;2.00;;;1.13;;
15958;SDS011;8078;47.822;9.402;2022-10-16T07:18:05;1.40;;;1.30;;
15958;SDS011;8078;47.822;9.402;2022-10-16T07:20:30;2.25;;;1.20;;
15958;SDS011;8078;47.822;9.402;2022-10-16T07:22:56;2.40;;;1.13;;
15958;SDS011;8078;47.822;9.402;2022-10-16T07:25:22;4.50;;;1.10;;
15958;SDS011;8078;47.822;9.402;2022-10-16T07:27:47;1.40;;;0.90;;
15958;SDS011;8078;47.822;9.402;2022-10-16T07:30:13;2.40;;;0.90;;
15958;SDS011;8078;47.822;9.402;2022-10-16T07:32:38;2.05;;;1.00;;
15958;SDS011;8078;47.822;9.402;2022-10-16T07:35:04;3.00;;;0.90;;
15958;SDS011;8078;47.822;9.402;2022-10-16T07:37:30;1.35;;;0.98;;
15958;SDS011;8078;47.822;9.402;2022-10-16T07:39:56;1.88;;;0.90;;
15958;SDS011;8078;47.822;9.402;2022-10-16T07:42:21;1.67;;;1.17;;
15958;SDS011;8078;47.822;9.402;2022-10-16T07:44:47;3.13;;;0.90;;
15958;SDS011;8078;47.822;9.402;2022-10-16T07:47:12;0.98;;;0.90;;
15958;SDS011;8078;47.822;9.402;2022-10-16T07:49:38;0.70;;;0.70;;
15958;SDS011;8078;47.822;9.402;2022-10-16T07:52:03;1.70;;;0.82;;
15958;SDS011;8078;47.822;9.402;2022-10-16T07:54:29;2.78;;;0.90;;
15958;SDS011;8078;47.822;9.402;2022-10-16T07:56:54;4.00;;;1.00;;
15958;SDS011;8078;47.822;9.402;2022-10-16T07:59:20;0.98;;;0.88;;
15958;SDS011;8078;47.822;9.402;2022-10-16T08:01:45;3.45;;;1.05;;
15958;SDS011;8078;47.822;9.402;2022-10-16T08:04:11;3.83;;;0.90;;
15958;SDS011;8078;47.822;9.402;2022-10-16T08:06:37;1.08;;;0.90;;
15958;SDS011;8078;47.822;9.402;2022-10-16T08:09:05;2.40;;;0.80;;
15958;SDS011;8078;47.822;9.402;2022-10-16T08:11:31;1.08;;;0.98;;
15958;SDS011;8078;47.822;9.402;2022-10-16T08:13:57;1.10;;;1.00;;
15958;SDS011;8078;47.822;9.402;2022-10-16T08:16:22;2.03;;;0.90;;
15958;SDS011;8078;47.822;9.402;2022-10-16T08:18:48;2.97;;;0.90;;
15958;SDS011;8078;47.822;9.402;2022-10-16T08:21:16;1.10;;;1.00;;
15958;SDS011;8078;47.822;9.402;2022-10-16T08:23:44;1.42;;;1.13;;
15958;SDS011;8078;47.822;9.402;2022-10-16T08:26:11;1.33;;;1.23;;
15958;SDS011;8078;47.822;9.402;2022-10-16T08:28:38;1.48;;;0.98;;
15958;SDS011;8078;47.822;9.402;2022-10-16T08:31:08;3.80;;;0.80;;
15958;SDS011;8078;47.822;9.402;2022-10-16T08:33:41;2.40;;;0.90;;
15958;SDS011;8078;47.822;9.402;2022-10-16T08:36:32;1.88;;;1.10;;
15958;SDS011;8078;47.822;9.402;2022-10-16T08:38:57;1.67;;;1.00;;
15958;SDS011;8078;47.822;9.402;2022-10-16T08:44:23;1.85;;;0.80;;
15958;SDS011;8078;47.822;9.402;2022-10-16T08:49:21;3.60;;;1.00;;
15958;SDS011;8078;47.822;9.402;2022-10-16T08:51:49;1.17;;;0.80;;
15958;SDS011;8078;47.822;9.402;2022-10-16T08:56:56;1.90;;;0.70;;
15958;SDS011;8078;47.822;9.402;2022-10-16T08:59:26;1.55;;;1.10;;
15958;SDS011;8078;47.822;9.402;2022-10-16T09:01:52;2.33;;;1.35;;
15958;SDS011;8078;47.822;9.402;2022-10-16T09:07:18;4.18;;;1.10;;
15958;SDS011;8078;47.822;9.402;2022-10-16T09:10:26;1.65;;;1.10;;
15958;SDS011;8078;47.822;9.402;2022-10-16T09:20:59;3.83;;;0.95;;
15958;SDS011;8078;47.822;9.402;2022-10-16T09:23:30;3.08;;;1.20;;
15958;SDS011;8078;47.822;9.402;2022-10-16T09:26:00;1.83;;;1.10;;
15958;SDS011;8078;47.822;9.402;2022-10-16T09:28:27;2.25;;;0.93;;
15958;SDS011;8078;47.822;9.402;2022-10-16T09:30:53;2.65;;;1.00;;
15958;SDS011;8078;47.822;9.402;2022-10-16T09:33:20;2.75;;;1.20;;
15958;SDS011;8078;47.822;9.402;2022-10-16T09:35:49;1.80;;;1.15;;
15958;SDS011;8078;47.822;9.402;2022-10-16T09:38:33;2.00;;;1.20;;
15958;SDS011;8078;47.822;9.402;2022-10-16T09:41:01;2.78;;;1.00;;
15958;SDS011;8078;47.822;9.402;2022-10-16T09:43:39;2.25;;;0.95;;
15958;SDS011;8078;47.822;9.402;2022-10-16T09:46:28;0.93;;;0.93;;
15958;SDS011;8078;47.822;9.402;2022-10-16T09:48:55;3.60;;;1.05;;
15958;SDS011;8078;47.822;9.402;2022-10-16T09:51:27;1.20;;;0.88;;
15958;SDS011;8078;47.822;9.402;2022-10-16T09:54:13;2.75;;;1.30;;
15958;SDS011;8078;47.822;9.402;2022-10-16T09:56:40;1.77;;;1.00;;
15958;SDS011;8078;47.822;9.402;2022-10-16T09:59:11;1.67;;;1.10;;
15958;SDS011;8078;47.822;9.402;2022-10-16T10:01:48;3.13;;;1.08;;
15958;SDS011;8078;47.822;9.402;2022-10-16T10:04:14;1.38;;;1.15;;
15958;SDS011;8078;47.822;9.402;2022-10-16T10:06:44;1.83;;;1.00;;
15958;SDS011;8078;47.822;9.402;2022-10-16T10:09:17;2.67;;;1.00;;
15958;SDS011;8078;47.822;9.402;2022-10-16T10:14:23;1.20;;;1.00;;
15958;SDS011;8078;47.822;9.402;2022-10-16T10:17:02;1.20;;;1.00;;
15958;SDS011;8078;47.822;9.402;2022-10-16T10:22:49;1.38;;;0.93;;
15958;SDS011;8078;47.822;9.402;2022-10-16T10:31:01;2.67;;;1.08;;
15958;SDS011;8078;47.822;9.402;2022-10-16T10:33:43;2.33;;;1.15;;
15958;SDS011;8078;47.822;9.402;2022-10-16T10:36:19;6.05;;;1.20;;
15958;SDS011;8078;47.822;9.402;2022-10-16T10:44:24;1.88;;;0.90;;
15958;SDS011;8078;47.822;9.402;2022-10-16T10:50:05;4.18;;;1.30;;
15958;SDS011;8078;47.822;9.402;2022-10-16T10:52:58;1.77;;;1.02;;
15958;SDS011;8078;47.822;9.402;2022-10-16T10:55:33;2.25;;;1.52;;
15958;SDS011;8078;47.822;9.402;2022-10-16T10:58:24;1.48;;;1.10;;
15958;SDS011;8078;47.822;9.402;2022-10-16T11:01:10;4.90;;;1.13;;
15958;SDS011;8078;47.822;9.402;2022-10-16T11:06:30;3.40;;;0.95;;
15958;SDS011;8078;47.822;9.402;2022-10-16T11:09:01;3.08;;;0.90;;
15958;SDS011;8078;47.822;9.402;2022-10-16T11:14:11;2.72;;;1.05;;
15958;SDS011;8078;47.822;9.402;2022-10-16T11:16:43;2.00;;;0.80;;
15958;SDS011;8078;47.822;9.402;2022-10-16T11:19:26;1.10;;;1.00;;
15958;SDS011;8078;47.822;9.402;2022-10-16T11:27:43;1.95;;;1.23;;
15958;SDS011;8078;47.822;9.402;2022-10-16T11:30:16;4.18;;;0.85;;
15958;SDS011;8078;47.822;9.402;2022-10-16T11:43:43;2.15;;;0.75;;
15958;SDS011;8078;47.822;9.402;2022-10-16T11:46:19;3.00;;;0.88;;
15958;SDS011;8078;47.822;9.402;2022-10-16T11:48:58;5.00;;;1.00;;
15958;SDS011;8078;47.822;9.402;2022-10-16T11:54:23;1.70;;;0.60;;
15958;SDS011;8078;47.822;9.402;2022-10-16T11:57:17;1.92;;;0.70;;
15958;SDS011;8078;47.822;9.402;2022-10-16T11:59:58;2.05;;;0.90;;
15958;SDS011;8078;47.822;9.402;2022-10-16T12:02:34;2.13;;;0.70;;
15958;SDS011;8078;47.822;9.402;2022-10-16T12:05:33;3.22;;;1.00;;
15958;SDS011;8078;47.822;9.402;2022-10-16T12:08:25;1.58;;;0.75;;
15958;SDS011;8078;47.822;9.402;2022-10-16T12:10:51;4.03;;;0.90;;
15958;SDS011;8078;47.822;9.402;2022-10-16T12:13:37;0.80;;;0.80;;
15958;SDS011;8078;47.822;9.402;2022-10-16T12:18:40;1.92;;;1.08;;
15958;SDS011;8078;47.822;9.402;2022-10-16T12:21:07;1.20;;;1.10;;
15958;SDS011;8078;47.822;9.402;2022-10-16T12:23:38;2.97;;;0.90;;
15958;SDS011;8078;47.822;9.402;2022-10-16T12:26:12;1.17;;;0.90;;
15958;SDS011;8078;47.822;9.402;2022-10-16T12:28:38;1.95;;;1.00;;
15958;SDS011;8078;47.822;9.402;2022-10-16T12:31:06;1.10;;;1.00;;
15958;SDS011;8078;47.822;9.402;2022-10-16T12:33:40;4.28;;;1.00;;
15958;SDS011;8078;47.822;9.402;2022-10-16T12:36:26;1.25;;;1.00;;
15958;SDS011;8078;47.822;9.402;2022-10-16T12:38:54;3.95;;;0.95;;
15958;SDS011;8078;47.822;9.402;2022-10-16T12:41:24;1.42;;;1.00;;
15958;SDS011;8078;47.822;9.402;2022-10-16T12:43:55;1.13;;;0.90;;
15958;SDS011;8078;47.822;9.402;2022-10-16T12:46:23;3.10;;;1.02;;
15958;SDS011;8078;47.822;9.402;2022-10-16T12:49:17;1.55;;;1.02;;
15958;SDS011;8078;47.822;9.402;2022-10-16T12:51:49;1.50;;;1.02;;
15958;SDS011;8078;47.822;9.402;2022-10-16T12:54:31;0.80;;;0.80;;
15958;SDS011;8078;47.822;9.402;2022-10-16T12:57:07;2.20;;;0.80;;
15958;SDS011;8078;47.822;9.402;2022-10-16T13:02:29;3.92;;;1.00;;
15958;SDS011;8078;47.822;9.402;2022-10-16T13:05:29;0.75;;;0.75;;
15958;SDS011;8078;47.822;9.402;2022-10-16T13:13:51;1.40;;;0.70;;
15958;SDS011;8078;47.822;9.402;2022-10-16T13:16:41;3.25;;;1.00;;
15958;SDS011;8078;47.822;9.402;2022-10-16T13:19:36;1.25;;;1.00;;
15958;SDS011;8078;47.822;9.402;2022-10-16T13:22:32;1.25;;;0.80;;
15958;SDS011;8078;47.822;9.402;2022-10-16T13:25:18;2.08;;;0.70;;
15958;SDS011;8078;47.822;9.402;2022-10-16T13:27:50;2.40;;;0.88;;
15958;SDS011;8078;47.822;9.402;2022-10-16T13:35:35;4.53;;;0.80;;
15958;SDS011;8078;47.822;9.402;2022-10-16T13:38:12;1.55;;;0.73;;
15958;SDS011;8078;47.822;9.402;2022-10-16T13:43:22;3.67;;;0.75;;
15958;SDS011;8078;47.822;9.402;2022-10-16T13:46:03;1.10;;;1.00;;
15958;SDS011;8078;47.822;9.402;2022-10-16T13:48:31;0.73;;;0.70;;
15958;SDS011;8078;47.822;9.402;2022-10-16T13:51:02;1.40;;;0.73;;
15958;SDS011;8078;47.822;9.402;2022-10-16T13:53:31;1.63;;;1.00;;
15958;SDS011;8078;47.822;9.402;2022-10-16T13:55:58;1.60;;;0.77;;
15958;SDS011;8078;47.822;9.402;2022-10-16T13:58:25;3.08;;;0.80;;
15958;SDS011;8078;47.822;9.402;2022-10-16T14:00:55;1.23;;;0.75;;
15958;SDS011;8078;47.822;9.402;2022-10-16T14:03:20;1.13;;;1.00;;
15958;SDS011;8078;47.822;9.402;2022-10-16T14:05:54;1.00;;;0.90;;
15958;SDS011;8078;47.822;9.402;2022-10-16T14:08:22;1.02;;;0.80;;
15958;SDS011;8078;47.822;9.402;2022-10-16T14:10:50;3.30;;;0.80;;
15958;SDS011;8078;47.822;9.402;2022-10-16T14:13:19;2.00;;;0.80;;
15958;SDS011;8078;47.822;9.402;2022-10-16T14:15:51;3.10;;;0.98;;
15958;SDS011;8078;47.822;9.402;2022-10-16T14:18:20;0.70;;;0.68;;
15958;SDS011;8078;47.822;9.402;2022-10-16T14:20:48;2.10;;;0.70;;
15958;SDS011;8078;47.822;9.402;2022-10-16T14:23:22;2.10;;;0.70;;
15958;SDS011;8078;47.822;9.402;2022-10-16T14:28:33;2.55;;;0.90;;
15958;SDS011;8078;47.822;9.402;2022-10-16T14:31:00;1.38;;;1.00;;
15958;SDS011;8078;47.822;9.402;2022-10-16T14:36:05;2.97;;;0.85;;
15958;SDS011;8078;47.822;9.402;2022-10-16T14:38:31;2.58;;;0.80;;
15958;SDS011;8078;47.822;9.402;2022-10-16T14:40:58;1.10;;;0.90;;
15958;SDS011;8078;47.822;9.402;2022-10-16T14:43:34;2.65;;;0.75;;
15958;SDS011;8078;47.822;9.402;2022-10-16T14:46:01;1.08;;;0.70;;
15958;SDS011;8078;47.822;9.402;2022-10-16T14:48:29;5.70;;;1.00;;
15958;SDS011;8078;47.822;9.402;2022-10-16T14:50:55;2.15;;;0.68;;
15958;SDS011;8078;47.822;9.402;2022-10-16T14:53:20;0.82;;;0.80;;
15958;SDS011;8078;47.822;9.402;2022-10-16T14:55:46;2.60;;;0.77;;
15958;SDS011;8078;47.822;9.402;2022-10-16T14:58:14;2.30;;;0.80;;
15958;SDS011;8078;47.822;9.402;2022-10-16T15:00:42;1.27;;;0.70;;
15958;SDS011;8078;47.822;9.402;2022-10-16T15:03:08;2.78;;;0.93;;
15958;SDS011;8078;47.822;9.402;2022-10-16T15:05:33;3.20;;;0.90;;
15958;SDS011;8078;47.822;9.402;2022-10-16T15:07:59;1.10;;;0.63;;
15958;SDS011;8078;47.822;9.402;2022-10-16T15:10:25;1.85;;;0.55;;
15958;SDS011;8078;47.822;9.402;2022-10-16T15:12:53;2.17;;;0.68;;
15958;SDS011;8078;47.822;9.402;2022-10-16T15:17:51;1.20;;;0.68;;
15958;SDS011;8078;47.822;9.402;2022-10-16T15:20:20;2.80;;;0.70;;
15958;SDS011;8078;47.822;9.402;2022-10-16T15:22:46;0.80;;;0.63;;
15958;SDS011;8078;47.822;9.402;2022-10-16T15:27:50;4.93;;;0.60;;
15958;SDS011;8078;47.822;9.402;2022-10-16T15:30:15;0.70;;;0.60;;
15958;SDS011;8078;47.822;9.402;2022-10-16T15:32:41;2.83;;;0.85;;
15958;SDS011;8078;47.822;9.402;2022-10-16T15:35:10;2.25;;;0.73;;
15958;SDS011;8078;47.822;9.402;2022-10-16T15:37:35;1.00;;;0.70;;
15958;SDS011;8078;47.822;9.402;2022-10-16T15:40:01;2.92;;;0.80;;
15958;SDS011;8078;47.822;9.402;2022-10-16T15:42:27;0.70;;;0.70;;
15958;SDS011;8078;47.822;9.402;2022-10-16T15:44:53;0.98;;;0.80;;
15958;SDS011;8078;47.822;9.402;2022-10-16T15:47:18;2.38;;;0.60;;
15958;SDS011;8078;47.822;9.402;2022-10-16T15:49:44;1.25;;;0.70;;
15958;SDS011;8078;47.822;9.402;2022-10-16T15:52:10;2.17;;;0.60;;
15958;SDS011;8078;47.822;9.402;2022-10-16T15:54:36;0.93;;;0.60;;
15958;SDS011;8078;47.822;9.402;2022-10-16T15:57:01;0.90;;;0.80;;
15958;SDS011;8078;47.822;9.402;2022-10-16T15:59:27;0.65;;;0.57;;
15958;SDS011;8078;47.822;9.402;2022-10-16T16:01:52;0.80;;;0.70;;
15958;SDS011;8078;47.822;9.402;2022-10-16T16:04:18;1.75;;;0.70;;
15958;SDS011;8078;47.822;9.402;2022-10-16T16:06:44;3.13;;;0.73;;
15958;SDS011;8078;47.822;9.402;2022-10-16T16:09:10;2.30;;;0.75;;
15958;SDS011;8078;47.822;9.402;2022-10-16T16:11:36;2.78;;;0.93;;
15958;SDS011;8078;47.822;9.402;2022-10-16T16:14:03;1.33;;;0.80;;
15958;SDS011;8078;47.822;9.402;2022-10-16T16:16:35;3.28;;;0.90;;
15958;SDS011;8078;47.822;9.402;2022-10-16T16:19:03;2.25;;;0.88;;
15958;SDS011;8078;47.822;9.402;2022-10-16T16:21:29;1.00;;;0.80;;
15958;SDS011;8078;47.822;9.402;2022-10-16T16:23:55;2.35;;;0.90;;
15958;SDS011;8078;47.822;9.402;2022-10-16T16:26:25;0.82;;;0.82;;
15958;SDS011;8078;47.822;9.402;2022-10-16T16:28:52;2.47;;;0.77;;
15958;SDS011;8078;47.822;9.402;2022-10-16T16:31:25;1.17;;;1.08;;
15958;SDS011;8078;47.822;9.402;2022-10-16T16:33:52;2.58;;;1.05;;
15958;SDS011;8078;47.822;9.402;2022-10-16T16:36:18;2.42;;;1.10;;
15958;SDS011;8078;47.822;9.402;2022-10-16T16:38:44;1.33;;;1.00;;
15958;SDS011;8078;47.822;9.402;2022-10-16T16:41:17;1.50;;;0.88;;
15958;SDS011;8078;47.822;9.402;2022-10-16T16:43:44;2.33;;;1.05;;
15958;SDS011;8078;47.822;9.402;2022-10-16T16:46:12;1.10;;;1.00;;
15958;SDS011;8078;47.822;9.402;2022-10-16T16:48:38;2.72;;;1.17;;
15958;SDS011;8078;47.822;9.402;2022-10-16T16:51:08;2.50;;;1.00;;
15958;SDS011;8078;47.822;9.402;2022-10-16T16:53:40;1.17;;;1.00;;
15958;SDS011;8078;47.822;9.402;2022-10-16T16:56:06;3.67;;;1.20;;
15958;SDS011;8078;47.822;9.402;2022-10-16T16:58:32;1.30;;;1.17;;
15958;SDS011;8078;47.822;9.402;2022-10-16T17:00:58;1.05;;;0.98;;
15958;SDS011;8078;47.822;9.402;2022-10-16T17:03:26;4.50;;;1.20;;